createdAt,value
2023-01-27T00:00:57.343Z,1.50
2023-01-27T00:03:24.959Z,1.50
2023-01-27T00:05:52.213Z,1.40
2023-01-27T00:08:19.750Z,1.40
2023-01-27T00:10:46.962Z,1.40
2023-01-27T00:13:27.035Z,1.40
2023-01-27T00:15:54.840Z,1.40
2023-01-27T00:18:23.498Z,1.40
2023-01-27T00:21:09.880Z,1.40
2023-01-27T00:23:55.820Z,1.40
2023-01-27T00:26:23.413Z,1.40
2023-01-27T00:28:50.608Z,1.40
2023-01-27T00:31:38.272Z,1.50
2023-01-27T00:34:10.845Z,1.50
2023-01-27T00:36:42.154Z,1.50
2023-01-27T00:39:11.097Z,1.50
2023-01-27T00:41:39.213Z,1.50
2023-01-27T00:44:07.303Z,1.40
2023-01-27T00:46:34.857Z,1.40
2023-01-27T00:49:02.133Z,1.40
2023-01-27T00:51:30.751Z,1.30
2023-01-27T00:53:59.237Z,1.30
2023-01-27T00:56:28.105Z,1.30
2023-01-27T00:58:55.946Z,1.30
2023-01-27T01:01:23.597Z,1.30
2023-01-27T01:03:50.876Z,1.30
2023-01-27T01:06:19.292Z,1.40
2023-01-27T01:08:48.957Z,1.30
2023-01-27T01:11:18.590Z,1.30
2023-01-27T01:13:46.580Z,1.30
2023-01-27T01:16:20.298Z,1.30
2023-01-27T01:18:47.765Z,1.30
2023-01-27T01:21:15.455Z,1.30
2023-01-27T01:23:44.521Z,1.30
2023-01-27T01:26:13.178Z,1.40
2023-01-27T01:28:40.443Z,1.30
2023-01-27T01:31:10.015Z,1.30
2023-01-27T01:33:37.592Z,1.30
2023-01-27T01:36:10.113Z,1.30
2023-01-27T01:38:37.753Z,1.30
2023-01-27T01:41:10.079Z,1.30
2023-01-27T01:43:37.316Z,1.20
2023-01-27T01:46:04.930Z,1.30
2023-01-27T01:48:47.753Z,1.30
2023-01-27T01:51:39.361Z,1.30
2023-01-27T01:54:15.443Z,1.30
2023-01-27T01:57:04.838Z,1.30
2023-01-27T01:59:36.332Z,1.40
2023-01-27T02:02:09.251Z,1.40
2023-01-27T02:04:41.961Z,1.40
2023-01-27T02:07:26.796Z,1.40
2023-01-27T02:09:56.915Z,1.40
2023-01-27T02:12:24.179Z,1.40
2023-01-27T02:14:51.370Z,1.40
2023-01-27T02:17:18.740Z,1.50
2023-01-27T02:19:58.515Z,1.50
2023-01-27T02:22:47.400Z,1.40
2023-01-27T02:25:35.184Z,1.50
2023-01-27T02:28:04.841Z,1.50
2023-01-27T02:30:32.948Z,1.50
2023-01-27T02:33:00.490Z,1.50
2023-01-27T02:35:41.298Z,1.50
2023-01-27T02:38:11.360Z,1.40
2023-01-27T02:40:40.491Z,1.50
2023-01-27T02:43:07.701Z,1.40
2023-01-27T02:45:35.020Z,1.40
2023-01-27T02:48:02.240Z,1.30
2023-01-27T02:50:29.634Z,1.40
2023-01-27T02:52:57.027Z,1.40
2023-01-27T02:55:24.226Z,1.40
2023-01-27T02:57:52.175Z,1.40
2023-01-27T03:00:36.212Z,1.30
2023-01-27T03:03:03.438Z,1.40
2023-01-27T03:05:30.649Z,1.40
2023-01-27T03:07:57.871Z,1.30
2023-01-27T03:10:25.134Z,1.30
2023-01-27T03:12:52.360Z,1.40
2023-01-27T03:15:38.252Z,1.40
2023-01-27T03:18:12.324Z,1.40
2023-01-27T03:20:41.156Z,1.40
2023-01-27T03:23:09.016Z,1.40
2023-01-27T03:25:37.028Z,1.40
2023-01-27T03:28:04.674Z,1.40
2023-01-27T03:30:40.010Z,1.40
2023-01-27T03:33:24.792Z,1.40
2023-01-27T03:36:10.608Z,1.30
2023-01-27T03:39:02.639Z,1.30
2023-01-27T03:41:48.498Z,1.40
2023-01-27T03:44:34.756Z,1.40
2023-01-27T03:47:02.237Z,1.40
2023-01-27T03:49:32.641Z,1.40
2023-01-27T03:52:00.221Z,1.40
2023-01-27T03:54:27.409Z,1.50
2023-01-27T03:56:54.691Z,1.50
2023-01-27T03:59:22.637Z,1.50
2023-01-27T04:01:49.898Z,1.50
2023-01-27T04:04:35.751Z,1.50
2023-01-27T04:07:03.145Z,1.50
2023-01-27T04:09:33.934Z,1.50
2023-01-27T04:12:04.417Z,1.50
2023-01-27T04:14:33.869Z,1.50
2023-01-27T04:17:13.996Z,1.60
2023-01-27T04:19:41.631Z,1.50
2023-01-27T04:22:12.506Z,1.60
2023-01-27T04:24:39.960Z,1.50
2023-01-27T04:27:12.785Z,1.50
2023-01-27T04:29:41.632Z,1.60
2023-01-27T04:32:11.215Z,1.60
2023-01-27T04:34:38.998Z,1.60
2023-01-27T04:37:07.979Z,1.50
2023-01-27T04:39:35.702Z,1.50
2023-01-27T04:42:02.962Z,1.60
2023-01-27T04:44:30.409Z,1.50
2023-01-27T04:46:57.811Z,1.50
2023-01-27T04:49:26.922Z,1.50
2023-01-27T04:51:55.374Z,1.50
2023-01-27T04:54:22.792Z,1.50
2023-01-27T04:56:58.497Z,1.50
2023-01-27T04:59:26.082Z,1.50
2023-01-27T05:01:53.375Z,1.60
2023-01-27T05:04:23.022Z,1.60
2023-01-27T05:06:50.381Z,1.60
2023-01-27T05:09:18.698Z,1.60
2023-01-27T05:11:46.125Z,1.60
2023-01-27T05:14:14.694Z,1.60
2023-01-27T05:16:42.238Z,1.60
2023-01-27T05:19:12.007Z,1.50
2023-01-27T05:21:41.298Z,1.50
2023-01-27T05:24:09.996Z,1.60
2023-01-27T05:26:37.458Z,1.60
2023-01-27T05:29:07.583Z,1.60
2023-01-27T05:31:35.575Z,1.60
2023-01-27T05:34:02.975Z,1.60
2023-01-27T05:36:30.820Z,1.60
2023-01-27T05:38:58.993Z,1.60
2023-01-27T05:41:29.043Z,1.60
2023-01-27T05:43:56.626Z,1.60
2023-01-27T05:46:26.785Z,1.60
2023-01-27T05:48:56.608Z,1.60
2023-01-27T05:51:25.131Z,1.60
2023-01-27T05:53:53.884Z,1.60
2023-01-27T05:56:22.567Z,1.60
2023-01-27T05:58:49.768Z,1.60
2023-01-27T06:01:19.516Z,1.60
2023-01-27T06:03:47.355Z,1.60
2023-01-27T06:06:17.529Z,1.60
2023-01-27T06:08:45.731Z,1.60
2023-01-27T06:11:13.942Z,1.60
2023-01-27T06:13:41.684Z,1.60
2023-01-27T06:16:12.689Z,1.60
2023-01-27T06:18:40.852Z,1.60
2023-01-27T06:21:10.250Z,1.60
2023-01-27T06:23:38.219Z,1.60
2023-01-27T06:26:11.773Z,1.50
2023-01-27T06:28:40.976Z,1.60
2023-01-27T06:31:18.386Z,1.60
2023-01-27T06:33:45.709Z,1.60
2023-01-27T06:36:20.891Z,1.60
2023-01-27T06:38:51.759Z,1.60
2023-01-27T06:41:19.916Z,1.60
2023-01-27T06:43:47.219Z,1.60
2023-01-27T06:46:16.962Z,1.60
2023-01-27T06:48:44.200Z,1.60
2023-01-27T06:51:17.712Z,1.70
2023-01-27T06:53:44.912Z,1.70
2023-01-27T06:56:12.165Z,1.70
2023-01-27T06:58:39.365Z,1.70
2023-01-27T07:01:07.200Z,1.60
2023-01-27T07:06:01.722Z,1.70
2023-01-27T07:08:28.997Z,1.70
2023-01-27T07:10:56.343Z,1.60
2023-01-27T07:13:23.657Z,1.60
2023-01-27T07:15:55.696Z,1.70
2023-01-27T07:18:25.054Z,1.70
2023-01-27T07:20:52.502Z,1.70
2023-01-27T07:23:20.340Z,1.70
2023-01-27T07:25:50.813Z,1.70
2023-01-27T07:28:19.149Z,1.80
2023-01-27T07:30:48.557Z,1.80
2023-01-27T07:33:20.065Z,1.70
2023-01-27T07:35:51.855Z,1.70
2023-01-27T07:38:19.124Z,1.70
2023-01-27T07:40:47.353Z,1.80
2023-01-27T07:43:14.688Z,1.90
2023-01-27T07:45:48.946Z,1.90
2023-01-27T07:48:16.508Z,1.90
2023-01-27T07:50:43.741Z,2.00
2023-01-27T07:53:12.031Z,1.90
2023-01-27T07:55:39.292Z,1.90
2023-01-27T07:58:09.154Z,2.00
2023-01-27T08:00:36.755Z,1.90
2023-01-27T08:03:06.007Z,2.00
2023-01-27T08:05:34.310Z,2.00
2023-01-27T08:08:04.274Z,2.00
2023-01-27T08:10:32.502Z,2.00
2023-01-27T08:12:59.873Z,2.10
2023-01-27T08:15:27.141Z,2.10
2023-01-27T08:17:58.597Z,2.10
2023-01-27T08:20:27.664Z,2.10
2023-01-27T08:22:55.453Z,2.20
2023-01-27T08:25:25.992Z,2.20
2023-01-27T08:27:55.358Z,2.30
2023-01-27T08:30:51.901Z,2.30
2023-01-27T08:33:23.625Z,2.20
2023-01-27T08:35:51.080Z,2.20
2023-01-27T08:38:22.447Z,2.30
2023-01-27T08:40:49.654Z,2.30
2023-01-27T08:43:17.299Z,2.40
2023-01-27T08:45:46.691Z,2.40
2023-01-27T08:48:13.925Z,2.50
2023-01-27T08:50:43.755Z,2.50
2023-01-27T08:53:10.956Z,2.50
2023-01-27T08:55:41.827Z,2.50
2023-01-27T08:58:09.027Z,2.60
2023-01-27T09:00:37.250Z,2.60
2023-01-27T09:03:04.485Z,2.60
2023-01-27T09:05:31.850Z,2.70
2023-01-27T09:07:59.029Z,2.80
2023-01-27T09:10:26.327Z,2.80
2023-01-27T09:12:53.548Z,3.00
2023-01-27T09:15:21.060Z,3.00
2023-01-27T09:17:48.440Z,3.00
2023-01-27T09:20:16.207Z,3.00
2023-01-27T09:22:45.931Z,3.10
2023-01-27T09:25:17.314Z,3.10
2023-01-27T09:27:45.137Z,3.10
2023-01-27T09:30:15.074Z,3.30
2023-01-27T09:32:45.958Z,3.40
2023-01-27T09:35:16.616Z,3.40
2023-01-27T09:37:55.003Z,3.50
2023-01-27T09:41:00.405Z,3.50
2023-01-27T09:44:06.676Z,3.60
2023-01-27T09:46:49.804Z,3.60
2023-01-27T09:49:50.177Z,3.60
2023-01-27T09:52:53.243Z,3.70
2023-01-27T09:55:33.904Z,3.80
2023-01-27T09:58:06.505Z,3.90
2023-01-27T10:01:00.349Z,3.90
2023-01-27T10:03:45.698Z,4.00
2023-01-27T10:06:45.211Z,4.00
2023-01-27T10:09:35.640Z,3.90
2023-01-27T10:12:30.751Z,3.90
2023-01-27T10:15:26.008Z,3.90
2023-01-27T10:18:18.163Z,3.90
2023-01-27T10:21:01.619Z,3.90
2023-01-27T10:24:14.554Z,3.90
2023-01-27T10:26:47.953Z,3.90
2023-01-27T10:29:51.328Z,4.00
2023-01-27T10:32:19.479Z,4.00
2023-01-27T10:35:10.386Z,4.00
2023-01-27T10:37:52.972Z,4.00
2023-01-27T10:41:02.460Z,3.90
2023-01-27T10:43:53.064Z,4.00
2023-01-27T10:46:48.129Z,4.00
2023-01-27T10:49:24.270Z,4.00
2023-01-27T10:52:13.110Z,4.10
2023-01-27T10:54:59.366Z,4.10
2023-01-27T10:57:35.916Z,4.10
2023-01-27T11:03:15.411Z,4.20
2023-01-27T11:05:49.168Z,4.20
2023-01-27T11:08:50.788Z,4.30
2023-01-27T11:11:39.588Z,4.30
2023-01-27T11:14:31.231Z,4.30
2023-01-27T11:17:12.576Z,4.30
2023-01-27T11:19:52.703Z,4.30
2023-01-27T11:22:39.079Z,4.30
2023-01-27T11:25:29.223Z,4.30
2023-01-27T11:28:14.475Z,4.30
2023-01-27T11:31:23.674Z,4.30
2023-01-27T11:34:25.029Z,4.30
2023-01-27T11:36:52.791Z,4.30
2023-01-27T11:39:21.345Z,4.40
2023-01-27T11:41:53.996Z,4.40
2023-01-27T11:44:25.921Z,4.40
2023-01-27T11:46:53.994Z,4.30
2023-01-27T11:49:31.718Z,4.30
2023-01-27T11:52:12.179Z,4.30
2023-01-27T11:55:04.044Z,4.40
2023-01-27T11:57:31.595Z,4.40
2023-01-27T12:00:07.631Z,4.30
2023-01-27T12:03:17.675Z,4.30
2023-01-27T12:05:59.087Z,4.30
2023-01-27T12:08:44.858Z,4.30
2023-01-27T12:11:24.429Z,4.30
2023-01-27T12:13:54.929Z,4.30
2023-01-27T12:16:26.925Z,4.20
2023-01-27T12:19:04.348Z,4.20
2023-01-27T12:21:48.057Z,4.20
2023-01-27T12:24:31.691Z,4.10
2023-01-27T12:27:00.394Z,4.10
2023-01-27T12:29:40.949Z,4.10
2023-01-27T12:32:22.192Z,4.10
2023-01-27T12:34:56.352Z,4.10
2023-01-27T12:37:34.380Z,4.10
2023-01-27T12:40:04.317Z,4.10
2023-01-27T12:42:44.207Z,4.10
2023-01-27T12:45:29.389Z,4.10
2023-01-27T12:48:19.864Z,4.10
2023-01-27T12:50:51.074Z,4.10
2023-01-27T12:53:27.865Z,4.10
2023-01-27T12:56:20.522Z,4.00
2023-01-27T12:58:54.449Z,4.10
2023-01-27T13:01:38.364Z,4.00
2023-01-27T13:04:08.563Z,4.00
2023-01-27T13:06:44.125Z,4.00
2023-01-27T13:09:28.306Z,4.00
2023-01-27T13:11:58.830Z,4.00
2023-01-27T13:14:34.269Z,4.00
2023-01-27T13:17:02.964Z,4.00
2023-01-27T13:19:43.158Z,4.00
2023-01-27T13:22:17.785Z,4.00
2023-01-27T13:24:48.698Z,4.10
2023-01-27T13:27:20.196Z,4.00
2023-01-27T13:30:16.275Z,4.00
2023-01-27T13:32:48.844Z,4.00
2023-01-27T13:35:28.578Z,4.00
2023-01-27T13:38:15.667Z,4.00
2023-01-27T13:40:48.898Z,3.90
2023-01-27T13:43:33.639Z,3.90
2023-01-27T13:46:14.887Z,4.00
2023-01-27T13:48:50.840Z,4.00
2023-01-27T13:51:25.146Z,4.00
2023-01-27T13:54:01.952Z,3.90
2023-01-27T13:56:53.051Z,3.80
2023-01-27T14:00:12.829Z,3.80
2023-01-27T14:03:16.442Z,3.80
2023-01-27T14:10:45.247Z,3.80
2023-01-27T14:13:38.647Z,3.80
2023-01-27T14:16:22.608Z,3.80
2023-01-27T14:19:08.580Z,3.80
2023-01-27T14:21:54.175Z,3.80
2023-01-27T14:24:28.131Z,3.80
2023-01-27T14:27:29.398Z,3.80
2023-01-27T14:30:15.226Z,3.80
2023-01-27T14:32:52.036Z,3.70
2023-01-27T14:35:39.200Z,3.70
2023-01-27T14:38:33.815Z,3.70
2023-01-27T14:41:37.010Z,3.80
2023-01-27T14:44:13.249Z,3.70
2023-01-27T14:46:56.058Z,3.70
2023-01-27T14:49:46.219Z,3.80
2023-01-27T14:52:28.766Z,3.70
2023-01-27T14:55:37.605Z,3.70
2023-01-27T14:58:15.008Z,3.70
2023-01-27T15:00:54.869Z,3.60
2023-01-27T15:04:01.961Z,3.60
2023-01-27T15:06:47.383Z,3.60
2023-01-27T15:09:37.864Z,3.60
2023-01-27T15:12:20.108Z,3.60
2023-01-27T15:15:22.790Z,3.60
2023-01-27T15:17:55.995Z,3.60
2023-01-27T15:20:48.578Z,3.60
2023-01-27T15:23:22.972Z,3.60
2023-01-27T15:26:01.585Z,3.60
2023-01-27T15:28:32.148Z,3.60
2023-01-27T15:31:17.971Z,3.60
2023-01-27T15:33:51.032Z,3.60
2023-01-27T15:36:27.392Z,3.60
2023-01-27T15:39:09.940Z,3.60
2023-01-27T15:41:57.452Z,3.60
2023-01-27T15:44:24.627Z,3.60
2023-01-27T15:46:53.989Z,3.60
2023-01-27T15:49:24.178Z,3.60
2023-01-27T15:51:54.296Z,3.60
2023-01-27T15:54:31.521Z,3.60
2023-01-27T15:57:04.546Z,3.60
2023-01-27T15:59:57.119Z,3.60
2023-01-27T16:02:29.562Z,3.60
2023-01-27T16:05:15.717Z,3.50
2023-01-27T16:08:11.006Z,3.40
2023-01-27T16:10:38.514Z,3.50
2023-01-27T16:13:14.824Z,3.50
2023-01-27T16:15:42.098Z,3.50
2023-01-27T16:18:09.272Z,3.50
2023-01-27T16:20:44.012Z,3.50
2023-01-27T16:23:16.177Z,3.50
2023-01-27T16:25:48.729Z,3.50
2023-01-27T16:28:27.575Z,3.50
2023-01-27T16:31:13.225Z,3.50
2023-01-27T16:33:43.955Z,3.50
2023-01-27T16:36:31.992Z,3.40
2023-01-27T16:39:27.004Z,3.40
2023-01-27T16:41:58.479Z,3.40
2023-01-27T16:44:33.535Z,3.30
2023-01-27T16:47:16.619Z,3.30
2023-01-27T16:49:45.357Z,3.40
2023-01-27T16:52:32.457Z,3.30
2023-01-27T16:55:06.964Z,3.30
2023-01-27T16:57:42.124Z,3.30
2023-01-27T17:00:27.570Z,3.30
2023-01-27T17:02:57.529Z,3.20
2023-01-27T17:05:26.149Z,3.20
2023-01-27T17:08:21.238Z,3.20
2023-01-27T17:10:55.941Z,3.20
2023-01-27T17:13:31.391Z,3.20
2023-01-27T17:16:00.563Z,3.20
2023-01-27T17:18:30.083Z,3.30
2023-01-27T17:20:59.888Z,3.20
2023-01-27T17:23:34.389Z,3.20
2023-01-27T17:26:30.162Z,3.30
2023-01-27T17:28:57.880Z,3.20
2023-01-27T17:31:25.713Z,3.20
2023-01-27T17:34:00.679Z,3.20
2023-01-27T17:36:27.971Z,3.20
2023-01-27T17:38:57.288Z,3.10
2023-01-27T17:41:26.159Z,3.10
2023-01-27T17:43:55.838Z,3.10
2023-01-27T17:46:33.866Z,3.10
2023-01-27T17:49:14.351Z,3.10
2023-01-27T17:52:00.274Z,3.10
2023-01-27T17:54:33.572Z,3.00
2023-01-27T17:57:16.541Z,3.00
2023-01-27T18:00:04.675Z,2.90
2023-01-27T18:02:58.759Z,2.80
2023-01-27T18:06:05.094Z,2.80
2023-01-27T18:08:36.071Z,2.80
2023-01-27T18:11:21.861Z,2.70
2023-01-27T18:13:53.945Z,2.70
2023-01-27T18:16:23.759Z,2.70
2023-01-27T18:18:51.426Z,2.70
2023-01-27T18:21:24.864Z,2.60
2023-01-27T18:23:59.713Z,2.70
2023-01-27T18:26:39.492Z,2.60
2023-01-27T18:29:33.464Z,2.60
2023-01-27T18:32:17.472Z,2.60
2023-01-27T18:34:49.938Z,2.60
2023-01-27T18:37:36.154Z,2.60
2023-01-27T18:40:30.587Z,2.60
2023-01-27T18:42:59.423Z,2.60
2023-01-27T18:45:27.631Z,2.60
2023-01-27T18:47:56.220Z,2.60
2023-01-27T18:50:26.894Z,2.50
2023-01-27T18:52:54.871Z,2.60
2023-01-27T18:55:24.265Z,2.50
2023-01-27T18:57:53.960Z,2.60
2023-01-27T19:00:38.076Z,2.60
2023-01-27T19:03:12.030Z,2.60
2023-01-27T19:05:57.695Z,2.60
2023-01-27T19:08:28.456Z,2.60
2023-01-27T19:10:58.817Z,2.60
2023-01-27T19:13:26.094Z,2.60
2023-01-27T19:16:02.609Z,2.60
2023-01-27T19:18:36.161Z,2.60
2023-01-27T19:21:03.715Z,2.60
2023-01-27T19:23:32.378Z,2.70
2023-01-27T19:26:04.747Z,2.60
2023-01-27T19:28:35.322Z,2.60
2023-01-27T19:31:02.856Z,2.60
2023-01-27T19:33:33.522Z,2.60
2023-01-27T19:36:24.373Z,2.50
2023-01-27T19:39:13.656Z,2.60
2023-01-27T19:41:41.557Z,2.60
2023-01-27T19:44:10.440Z,2.50
2023-01-27T19:46:39.875Z,2.50
2023-01-27T19:49:10.089Z,2.60
2023-01-27T19:51:37.905Z,2.60
2023-01-27T19:54:05.144Z,2.60
2023-01-27T19:56:32.881Z,2.60
2023-01-27T19:59:00.426Z,2.50
2023-01-27T20:01:27.869Z,2.60
2023-01-27T20:03:55.441Z,2.60
2023-01-27T20:06:26.010Z,2.60
2023-01-27T20:08:55.273Z,2.60
2023-01-27T20:11:31.639Z,2.60
2023-01-27T20:13:59.824Z,2.60
2023-01-27T20:16:27.315Z,2.60
2023-01-27T20:18:55.235Z,2.60
2023-01-27T20:21:25.165Z,2.60
2023-01-27T20:23:56.436Z,2.60
2023-01-27T20:26:32.673Z,2.60
2023-01-27T20:29:00.039Z,2.60
2023-01-27T20:31:27.402Z,2.60
2023-01-27T20:34:00.490Z,2.50
2023-01-27T20:36:27.809Z,2.50
2023-01-27T20:38:54.990Z,2.50
2023-01-27T20:41:24.537Z,2.50
2023-01-27T20:44:00.421Z,2.50
2023-01-27T20:46:28.055Z,2.50
2023-01-27T20:48:55.434Z,2.40
2023-01-27T20:51:22.625Z,2.40
2023-01-27T20:53:49.808Z,2.30
2023-01-27T20:56:19.983Z,2.30
2023-01-27T20:58:48.143Z,2.20
2023-01-27T21:01:18.944Z,2.20
2023-01-27T21:03:46.686Z,2.30
2023-01-27T21:06:17.794Z,2.30
2023-01-27T21:08:47.469Z,2.20
2023-01-27T21:11:16.003Z,2.20
2023-01-27T21:13:43.419Z,2.10
2023-01-27T21:16:10.877Z,2.10
2023-01-27T21:18:38.469Z,2.10
2023-01-27T21:21:06.338Z,2.10
2023-01-27T21:23:34.936Z,2.10
2023-01-27T21:26:09.468Z,2.10
2023-01-27T21:28:36.767Z,2.10
2023-01-27T21:31:08.863Z,2.10
2023-01-27T21:33:37.397Z,2.10
2023-01-27T21:36:05.884Z,2.00
2023-01-27T21:38:33.232Z,2.00
2023-01-27T21:41:12.853Z,2.00
2023-01-27T21:43:58.642Z,2.00
2023-01-27T21:46:25.881Z,1.90
2023-01-27T21:48:53.274Z,1.80
2023-01-27T21:51:28.534Z,1.80
2023-01-27T21:53:57.334Z,1.70
2023-01-27T21:56:28.253Z,1.60
2023-01-27T21:58:58.165Z,1.60
2023-01-27T22:01:27.235Z,1.60
2023-01-27T22:04:05.868Z,1.60
2023-01-27T22:06:44.456Z,1.60
2023-01-27T22:09:31.240Z,1.50
2023-01-27T22:12:04.006Z,1.50
2023-01-27T22:14:34.347Z,1.50
2023-01-27T22:17:18.441Z,1.50
2023-01-27T22:19:51.478Z,1.50
2023-01-27T22:22:30.599Z,1.40
2023-01-27T22:25:05.026Z,1.40
2023-01-27T22:27:33.504Z,1.30
2023-01-27T22:30:02.072Z,1.30
2023-01-27T22:32:32.038Z,1.30
2023-01-27T22:35:03.048Z,1.30
2023-01-27T22:37:33.325Z,1.30
2023-01-27T22:40:03.241Z,1.30
2023-01-27T22:42:40.030Z,1.30
2023-01-27T22:45:13.198Z,1.30
2023-01-27T22:47:46.422Z,1.40
2023-01-27T22:50:28.393Z,1.40
2023-01-27T22:52:57.592Z,1.50
2023-01-27T22:55:25.633Z,1.40
2023-01-27T22:57:53.190Z,1.50
2023-01-27T23:00:21.524Z,1.50
2023-01-27T23:02:56.274Z,1.40
2023-01-27T23:05:30.941Z,1.40
2023-01-27T23:07:59.522Z,1.40
2023-01-27T23:10:29.847Z,1.40
2023-01-27T23:13:17.601Z,1.30
2023-01-27T23:15:53.933Z,1.30
2023-01-27T23:18:23.520Z,1.30
2023-01-27T23:20:52.382Z,1.30
2023-01-27T23:23:23.811Z,1.30
2023-01-27T23:25:57.766Z,1.30
2023-01-27T23:28:31.023Z,1.30
2023-01-27T23:31:13.965Z,1.30
2023-01-27T23:33:46.170Z,1.30
2023-01-27T23:36:26.322Z,1.30
2023-01-27T23:38:56.961Z,1.20
2023-01-27T23:41:43.813Z,1.20
2023-01-27T23:44:14.428Z,1.10
2023-01-27T23:46:50.805Z,1.10
2023-01-27T23:49:21.848Z,1.10
2023-01-27T23:51:55.409Z,1.10
2023-01-27T23:54:23.474Z,1.10
2023-01-27T23:56:51.955Z,1.10
2023-01-27T23:59:20.517Z,1.10
